createdAt,value
2023-01-03T00:01:58.379Z,91.89
2023-01-03T00:05:05.887Z,91.99
2023-01-03T00:08:13.832Z,92.30
2023-01-03T00:11:21.213Z,92.61
2023-01-03T00:14:28.704Z,91.93
2023-01-03T00:17:36.201Z,91.93
2023-01-03T00:20:43.645Z,91.93
2023-01-03T00:23:51.155Z,92.14
2023-01-03T00:26:58.671Z,92.44
2023-01-03T00:30:06.507Z,92.76
2023-01-03T00:33:14.196Z,92.86
2023-01-03T00:36:21.611Z,92.44
2023-01-03T00:39:29.058Z,92.14
2023-01-03T00:42:36.068Z,92.34
2023-01-03T00:45:44.030Z,92.24
2023-01-03T00:48:51.943Z,91.93
2023-01-03T00:51:59.149Z,92.86
2023-01-03T00:55:06.877Z,93.16
2023-01-03T00:58:14.943Z,93.31
2023-01-03T01:01:22.150Z,93.52
2023-01-03T01:04:30.021Z,93.31
2023-01-03T01:07:37.576Z,93.83
2023-01-03T01:10:44.683Z,94.34
2023-01-03T01:13:52.657Z,94.76
2023-01-03T01:17:00.176Z,94.49
2023-01-03T01:20:07.648Z,94.70
2023-01-03T01:23:15.849Z,94.90
2023-01-03T01:26:23.414Z,95.00
2023-01-03T01:29:30.898Z,94.38
2023-01-03T01:32:39.128Z,94.18
2023-01-03T01:35:46.652Z,94.49
2023-01-03T01:38:54.411Z,93.98
2023-01-03T01:42:02.498Z,94.08
2023-01-03T01:45:10.332Z,93.77
2023-01-03T01:48:18.041Z,93.71
2023-01-03T01:51:25.579Z,93.81
2023-01-03T01:54:33.294Z,94.02
2023-01-03T01:57:41.115Z,93.40
2023-01-03T02:00:48.139Z,93.09
2023-01-03T02:03:56.269Z,92.78
2023-01-03T02:07:03.335Z,92.99
2023-01-03T02:10:11.195Z,92.57
2023-01-03T02:13:19.109Z,92.06
2023-01-03T02:16:26.287Z,92.47
2023-01-03T02:19:34.394Z,92.37
2023-01-03T02:22:42.383Z,92.47
2023-01-03T02:25:49.555Z,92.06
2023-01-03T02:28:57.380Z,92.37
2023-01-03T02:32:05.253Z,92.16
2023-01-03T02:35:12.532Z,91.96
2023-01-03T02:38:20.305Z,92.06
2023-01-03T02:41:27.390Z,92.06
2023-01-03T02:44:34.734Z,91.58
2023-01-03T02:47:42.936Z,91.89
2023-01-03T02:50:50.638Z,92.46
2023-01-03T02:53:58.196Z,92.97
2023-01-03T02:57:05.667Z,93.07
2023-01-03T03:00:13.599Z,92.76
2023-01-03T03:03:21.185Z,92.66
2023-01-03T03:06:28.846Z,92.55
2023-01-03T03:09:36.605Z,92.55
2023-01-03T03:12:43.741Z,92.80
2023-01-03T03:15:51.831Z,93.12
2023-01-03T03:19:00.115Z,93.57
2023-01-03T03:22:07.339Z,93.88
2023-01-03T03:25:15.492Z,94.40
2023-01-03T03:28:23.294Z,94.50
2023-01-03T03:31:30.623Z,94.44
2023-01-03T03:34:38.553Z,94.34
2023-01-03T03:37:46.208Z,94.54
2023-01-03T03:40:53.784Z,94.85
2023-01-03T03:44:02.009Z,95.17
2023-01-03T03:47:09.911Z,95.42
2023-01-03T03:50:17.252Z,95.31
2023-01-03T03:53:24.572Z,95.21
2023-01-03T03:56:32.936Z,95.42
2023-01-03T03:59:40.852Z,95.46
2023-01-03T04:02:48.074Z,95.67
2023-01-03T04:05:56.206Z,95.77
2023-01-03T04:09:04.066Z,95.98
2023-01-03T04:12:11.410Z,96.23
2023-01-03T04:15:19.690Z,96.23
2023-01-03T04:18:27.320Z,96.44
2023-01-03T04:21:35.041Z,96.44
2023-01-03T04:24:43.017Z,96.64
2023-01-03T04:27:50.854Z,96.79
2023-01-03T04:30:58.413Z,97.00
2023-01-03T04:34:05.983Z,97.10
2023-01-03T04:37:13.804Z,97.41
2023-01-03T04:40:21.415Z,97.93
2023-01-03T04:43:28.707Z,98.24
2023-01-03T04:46:36.767Z,98.40
2023-01-03T04:49:44.031Z,98.71
2023-01-03T04:52:51.562Z,98.71
2023-01-03T04:55:59.668Z,98.77
2023-01-03T04:59:07.151Z,98.66
2023-01-03T05:02:14.610Z,98.52
2023-01-03T05:05:22.394Z,98.41
2023-01-03T05:08:29.546Z,98.21
2023-01-03T05:11:37.551Z,98.00
2023-01-03T05:14:45.445Z,97.89
2023-01-03T05:17:52.682Z,97.69
2023-01-03T05:21:00.681Z,97.64
2023-01-03T05:24:08.610Z,97.33
2023-01-03T05:27:15.790Z,97.23
2023-01-03T05:30:23.883Z,97.33
2023-01-03T05:33:32.446Z,97.23
2023-01-03T05:36:39.988Z,97.13
2023-01-03T05:39:47.748Z,96.92
2023-01-03T05:42:55.271Z,97.02
2023-01-03T05:46:02.430Z,96.98
2023-01-03T05:49:09.925Z,97.08
2023-01-03T05:52:17.668Z,96.88
2023-01-03T05:55:25.259Z,97.19
2023-01-03T05:58:32.358Z,97.50
2023-01-03T06:01:40.613Z,97.91
2023-01-03T06:04:48.111Z,98.01
2023-01-03T06:07:55.953Z,98.01
2023-01-03T06:11:04.008Z,98.22
2023-01-03T06:14:11.994Z,98.53
2023-01-03T06:17:19.748Z,98.94
2023-01-03T06:20:27.638Z,99.35
2023-01-03T06:23:35.725Z,99.56
2023-01-03T06:26:43.451Z,99.77
2023-01-03T06:29:51.283Z,99.87
2023-01-03T06:32:59.379Z,99.99
2023-01-03T06:36:06.383Z,99.99
2023-01-03T06:39:14.321Z,99.98
2023-01-03T06:42:22.248Z,99.87
2023-01-03T06:45:29.526Z,99.77
2023-01-03T06:48:37.621Z,99.77
2023-01-03T06:51:45.684Z,99.87
2023-01-03T06:54:52.956Z,99.98
2023-01-03T06:58:01.215Z,99.87
2023-01-03T07:01:08.939Z,99.98
2023-01-03T07:04:16.809Z,99.87
2023-01-03T07:07:25.062Z,99.66
2023-01-03T07:10:32.621Z,99.71
2023-01-03T07:13:40.087Z,99.82
2023-01-03T07:16:47.458Z,99.99
2023-01-03T07:19:55.281Z,99.99
2023-01-03T07:23:03.006Z,99.99
2023-01-03T07:26:10.484Z,99.99
2023-01-03T07:29:18.520Z,99.99
2023-01-03T07:32:26.075Z,99.99
2023-01-03T07:35:33.759Z,99.98
2023-01-03T07:38:41.651Z,99.77
2023-01-03T07:41:49.035Z,99.66
2023-01-03T07:44:56.615Z,99.46
2023-01-03T07:48:04.545Z,99.56
2023-01-03T07:51:11.772Z,99.56
2023-01-03T07:54:19.262Z,99.35
2023-01-03T07:57:27.145Z,99.15
2023-01-03T08:00:34.653Z,99.15
2023-01-03T08:03:42.456Z,99.25
2023-01-03T08:06:50.037Z,98.94
2023-01-03T08:09:58.090Z,98.74
2023-01-03T08:13:05.651Z,98.38
2023-01-03T08:16:13.158Z,97.86
2023-01-03T08:19:20.954Z,97.45
2023-01-03T08:22:28.897Z,97.34
2023-01-03T08:25:36.747Z,97.25
2023-01-03T08:28:44.567Z,97.25
2023-01-03T08:31:52.592Z,97.14
2023-01-03T08:35:00.042Z,97.04
2023-01-03T08:38:07.888Z,96.83
2023-01-03T08:41:15.321Z,96.52
2023-01-03T08:44:22.933Z,96.62
2023-01-03T08:47:30.952Z,97.04
2023-01-03T08:50:38.741Z,97.14
2023-01-03T08:53:46.264Z,97.25
2023-01-03T08:56:54.353Z,97.25
2023-01-03T09:00:01.752Z,97.14
2023-01-03T09:03:09.721Z,97.14
2023-01-03T09:06:17.693Z,97.14
2023-01-03T09:09:25.529Z,96.69
2023-01-03T09:12:33.187Z,96.17
2023-01-03T09:15:40.728Z,95.40
2023-01-03T09:18:48.581Z,94.89
2023-01-03T09:21:56.147Z,94.23
2023-01-03T09:25:03.627Z,92.99
2023-01-03T09:28:11.600Z,91.54
2023-01-03T09:31:18.847Z,91.24
2023-01-03T09:34:27.076Z,90.78
2023-01-03T09:37:34.820Z,89.95
2023-01-03T09:40:42.093Z,89.65
2023-01-03T09:43:50.093Z,89.75
2023-01-03T09:46:57.691Z,89.85
2023-01-03T09:50:29.635Z,89.40
2023-01-03T09:53:09.883Z,88.57
2023-01-03T09:56:17.570Z,89.29
2023-01-03T09:59:24.994Z,88.57
2023-01-03T10:02:32.620Z,88.37
2023-01-03T10:05:40.571Z,87.54
2023-01-03T10:08:48.185Z,87.79
2023-01-03T10:11:55.716Z,87.85
2023-01-03T10:15:03.704Z,88.78
2023-01-03T10:18:11.080Z,88.17
2023-01-03T10:21:19.376Z,87.13
2023-01-03T10:24:27.766Z,87.54
2023-01-03T10:27:35.229Z,88.06
2023-01-03T10:30:43.279Z,86.88
2023-01-03T10:33:51.453Z,86.47
2023-01-03T10:36:58.982Z,85.65
2023-01-03T10:40:07.000Z,85.75
2023-01-03T10:43:14.627Z,85.03
2023-01-03T10:46:21.948Z,85.03
2023-01-03T10:49:30.887Z,86.06
2023-01-03T10:52:38.781Z,84.42
2023-01-03T10:55:46.272Z,83.18
2023-01-03T10:58:54.205Z,84.00
2023-01-03T11:02:01.485Z,85.14
2023-01-03T11:05:09.288Z,85.10
2023-01-03T11:08:17.576Z,84.27
2023-01-03T11:11:25.060Z,83.80
2023-01-03T11:14:32.705Z,84.11
2023-01-03T11:17:40.456Z,84.42
2023-01-03T11:20:48.225Z,84.00
2023-01-03T11:23:55.857Z,83.80
2023-01-03T11:27:03.586Z,83.49
2023-01-03T11:30:11.457Z,83.35
2023-01-03T11:33:21.521Z,82.01
2023-01-03T11:36:22.627Z,81.81
2023-01-03T11:39:30.630Z,81.70
2023-01-03T11:42:37.829Z,82.21
2023-01-03T11:45:49.154Z,82.53
2023-01-03T11:48:46.632Z,81.91
2023-01-03T11:51:53.820Z,81.19
2023-01-03T11:55:01.465Z,80.98
2023-01-03T11:58:09.378Z,80.94
2023-01-03T12:01:16.519Z,80.22
2023-01-03T12:04:24.416Z,81.97
2023-01-03T12:07:48.092Z,80.33
2023-01-03T12:10:36.876Z,80.12
2023-01-03T12:13:44.514Z,81.76
2023-01-03T12:16:52.247Z,80.63
2023-01-03T12:20:00.246Z,80.94
2023-01-03T12:23:07.429Z,81.97
2023-01-03T12:26:15.347Z,81.87
2023-01-03T12:29:23.065Z,81.62
2023-01-03T12:32:30.810Z,81.83
2023-01-03T12:35:38.834Z,81.52
2023-01-03T12:38:46.643Z,81.73
2023-01-03T12:41:54.245Z,81.32
2023-01-03T12:45:02.062Z,81.21
2023-01-03T12:48:09.209Z,81.62
2023-01-03T12:51:17.127Z,81.93
2023-01-03T12:54:25.379Z,82.34
2023-01-03T12:57:32.781Z,81.73
2023-01-03T13:00:39.919Z,82.65
2023-01-03T13:03:47.837Z,82.59
2023-01-03T13:06:55.903Z,82.90
2023-01-03T13:10:03.512Z,83.11
2023-01-03T13:13:10.917Z,83.62
2023-01-03T13:16:18.997Z,83.51
2023-01-03T13:19:26.687Z,83.31
2023-01-03T13:22:33.851Z,83.58
2023-01-03T13:25:42.109Z,83.27
2023-01-03T13:28:49.287Z,82.76
2023-01-03T13:31:57.105Z,83.62
2023-01-03T13:35:05.149Z,84.13
2023-01-03T13:38:12.395Z,84.44
2023-01-03T13:41:20.343Z,84.58
2023-01-03T13:44:28.084Z,84.38
2023-01-03T13:47:35.687Z,84.58
2023-01-03T13:50:43.391Z,84.99
2023-01-03T13:53:51.008Z,85.82
2023-01-03T13:56:58.523Z,85.92
2023-01-03T14:00:06.492Z,86.29
2023-01-03T14:03:14.510Z,85.68
2023-01-03T14:06:22.395Z,85.57
2023-01-03T14:09:30.471Z,85.88
2023-01-03T14:12:38.324Z,85.36
2023-01-03T14:15:46.030Z,85.22
2023-01-03T14:18:53.906Z,86.05
2023-01-03T14:22:20.989Z,85.84
2023-01-03T14:25:06.463Z,86.46
2023-01-03T14:28:14.017Z,86.46
2023-01-03T14:31:21.653Z,86.97
2023-01-03T14:34:29.685Z,86.87
2023-01-03T14:37:37.489Z,86.66
2023-01-03T14:40:45.186Z,86.60
2023-01-03T14:43:52.906Z,86.70
2023-01-03T14:47:00.473Z,86.91
2023-01-03T14:50:08.342Z,86.80
2023-01-03T14:53:15.485Z,87.57
2023-01-03T14:56:23.430Z,87.57
2023-01-03T14:59:31.549Z,88.39
2023-01-03T15:02:38.923Z,88.18
2023-01-03T15:05:47.284Z,88.04
2023-01-03T15:08:55.542Z,87.22
2023-01-03T15:12:02.724Z,87.22
2023-01-03T15:15:10.494Z,87.12
2023-01-03T15:18:20.774Z,87.01
2023-01-03T15:21:28.302Z,86.91
2023-01-03T15:24:42.717Z,86.60
2023-01-03T15:27:39.401Z,87.01
2023-01-03T15:30:47.048Z,87.22
2023-01-03T15:33:55.162Z,87.32
2023-01-03T15:37:02.738Z,87.22
2023-01-03T15:40:10.254Z,87.73
2023-01-03T15:43:17.840Z,88.24
2023-01-03T15:46:25.911Z,88.56
2023-01-03T15:49:33.561Z,88.49
2023-01-03T15:52:41.191Z,89.58
2023-01-03T15:55:48.940Z,90.81
2023-01-03T15:58:56.741Z,91.89
2023-01-03T16:02:04.284Z,92.20
2023-01-03T16:05:16.437Z,92.71
2023-01-03T16:08:16.846Z,93.02
2023-01-03T16:11:31.591Z,93.23
2023-01-03T16:14:29.786Z,93.48
2023-01-03T16:17:37.367Z,93.48
2023-01-03T16:20:44.523Z,93.58
2023-01-03T16:23:52.170Z,93.93
2023-01-03T16:27:00.000Z,94.24
2023-01-03T16:30:07.706Z,94.76
2023-01-03T16:33:15.279Z,95.00
2023-01-03T16:36:22.780Z,95.31
2023-01-03T16:39:30.429Z,95.10
2023-01-03T16:42:38.094Z,94.65
2023-01-03T16:45:47.667Z,94.34
2023-01-03T16:48:55.373Z,94.18
2023-01-03T16:52:03.167Z,94.08
2023-01-03T16:55:11.509Z,94.18
2023-01-03T16:58:19.022Z,93.98
2023-01-03T17:01:26.974Z,93.66
2023-01-03T17:04:35.059Z,93.60
2023-01-03T17:07:42.245Z,93.50
2023-01-03T17:10:50.151Z,93.81
2023-01-03T17:13:58.284Z,93.85
2023-01-03T17:17:05.445Z,93.85
2023-01-03T17:20:13.165Z,93.96
2023-01-03T17:23:20.885Z,94.00
2023-01-03T17:26:28.814Z,94.25
2023-01-03T17:29:36.653Z,94.56
2023-01-03T17:32:44.374Z,94.71
2023-01-03T17:35:52.083Z,94.81
2023-01-03T17:38:59.989Z,95.02
2023-01-03T17:42:07.792Z,95.32
2023-01-03T17:45:15.403Z,95.43
2023-01-03T17:48:22.806Z,95.57
2023-01-03T17:51:30.667Z,95.68
2023-01-03T17:54:37.826Z,95.94
2023-01-03T17:57:45.388Z,96.03
2023-01-03T18:00:53.261Z,96.03
2023-01-03T18:04:01.008Z,96.14
2023-01-03T18:07:08.200Z,96.19
2023-01-03T18:10:16.103Z,96.59
2023-01-03T18:13:23.199Z,96.70
2023-01-03T18:16:31.138Z,96.75
2023-01-03T18:19:38.945Z,96.95
2023-01-03T18:22:46.525Z,96.85
2023-01-03T18:25:54.248Z,96.95
2023-01-03T18:29:02.056Z,97.00
2023-01-03T18:32:10.047Z,96.89
2023-01-03T18:35:24.250Z,97.66
2023-01-03T18:38:22.533Z,97.97
2023-01-03T18:41:30.213Z,98.39
2023-01-03T18:44:37.688Z,98.86
2023-01-03T18:47:45.479Z,99.17
2023-01-03T18:50:57.814Z,99.13
2023-01-03T18:53:55.611Z,99.13
2023-01-03T18:57:03.799Z,98.92
2023-01-03T19:00:11.651Z,98.77
2023-01-03T19:03:19.504Z,98.56
2023-01-03T19:06:27.597Z,98.35
2023-01-03T19:09:35.477Z,98.05
2023-01-03T19:12:42.794Z,97.88
2023-01-03T19:15:51.146Z,97.67
2023-01-03T19:18:58.836Z,97.83
2023-01-03T19:22:06.467Z,97.62
2023-01-03T19:25:14.444Z,97.72
2023-01-03T19:28:22.042Z,98.08
2023-01-03T19:31:30.365Z,98.39
2023-01-03T19:34:38.875Z,98.70
2023-01-03T19:37:46.567Z,98.80
2023-01-03T19:40:54.309Z,98.91
2023-01-03T19:44:02.223Z,98.91
2023-01-03T19:47:10.337Z,98.80
2023-01-03T19:50:18.053Z,98.70
2023-01-03T19:53:25.797Z,98.60
2023-01-03T19:56:34.330Z,98.39
2023-01-03T19:59:42.244Z,98.49
2023-01-03T20:02:50.000Z,98.60
2023-01-03T20:05:58.161Z,98.70
2023-01-03T20:09:05.727Z,98.70
2023-01-03T20:12:13.222Z,98.75
2023-01-03T20:15:21.357Z,98.65
2023-01-03T20:18:29.065Z,98.19
2023-01-03T20:21:37.043Z,97.93
2023-01-03T20:24:44.820Z,97.62
2023-01-03T20:27:52.993Z,97.52
2023-01-03T20:31:00.611Z,97.20
2023-01-03T20:34:08.629Z,97.41
2023-01-03T20:37:17.291Z,97.62
2023-01-03T20:40:24.921Z,97.72
2023-01-03T20:43:32.783Z,97.62
2023-01-03T20:46:40.355Z,97.52
2023-01-03T20:49:47.502Z,97.41
2023-01-03T20:52:55.544Z,97.72
2023-01-03T20:56:03.260Z,97.72
2023-01-03T20:59:10.432Z,97.72
2023-01-03T21:02:18.251Z,97.72
2023-01-03T21:05:25.820Z,97.83
2023-01-03T21:08:33.393Z,97.52
2023-01-03T21:11:41.257Z,97.62
2023-01-03T21:14:49.099Z,97.93
2023-01-03T21:17:57.507Z,97.78
2023-01-03T21:21:04.851Z,97.57
2023-01-03T21:24:12.535Z,97.36
2023-01-03T21:27:20.226Z,97.47
2023-01-03T21:30:28.018Z,97.26
2023-01-03T21:33:35.988Z,97.16
2023-01-03T21:36:43.802Z,97.26
2023-01-03T21:39:51.347Z,97.00
2023-01-03T21:43:03.656Z,96.79
2023-01-03T21:46:01.329Z,96.79
2023-01-03T21:49:08.770Z,96.83
2023-01-03T21:52:17.174Z,96.94
2023-01-03T21:55:24.336Z,96.94
2023-01-03T21:58:31.904Z,96.62
2023-01-03T22:01:39.891Z,96.88
2023-01-03T22:04:47.343Z,97.09
2023-01-03T22:07:55.545Z,97.39
2023-01-03T22:11:03.209Z,97.60
2023-01-03T22:14:11.434Z,97.81
2023-01-03T22:17:18.777Z,97.71
2023-01-03T22:20:26.596Z,97.60
2023-01-03T22:23:34.603Z,97.91
2023-01-03T22:26:43.025Z,98.02
2023-01-03T22:29:50.879Z,98.12
2023-01-03T22:32:58.346Z,98.12
2023-01-03T22:36:06.237Z,98.02
2023-01-03T22:39:14.200Z,97.81
2023-01-03T22:42:22.073Z,97.77
2023-01-03T22:45:29.547Z,97.45
2023-01-03T22:48:37.582Z,97.35
2023-01-03T22:51:45.225Z,96.94
2023-01-03T22:54:52.856Z,96.94
2023-01-03T22:58:01.140Z,97.04
2023-01-03T23:01:09.304Z,97.00
2023-01-03T23:04:17.419Z,96.79
2023-01-03T23:07:25.730Z,96.58
2023-01-03T23:10:33.766Z,96.48
2023-01-03T23:13:41.431Z,96.48
2023-01-03T23:16:49.317Z,96.48
2023-01-03T23:19:56.812Z,96.58
2023-01-03T23:23:04.351Z,96.58
2023-01-03T23:26:12.124Z,96.27
2023-01-03T23:29:20.071Z,96.48
2023-01-03T23:32:27.733Z,96.37
2023-01-03T23:35:35.642Z,96.37
2023-01-03T23:38:43.492Z,96.62
2023-01-03T23:41:51.184Z,96.73
2023-01-03T23:44:59.035Z,96.57
2023-01-03T23:48:07.428Z,96.88
2023-01-03T23:51:15.189Z,97.29
2023-01-03T23:54:22.745Z,97.39
2023-01-03T23:57:30.882Z,97.25
